Terminal Aerodrome Forecast
Issued by NWS

Current Version | Previous Version | Text Only | Print | Product List | Glossary On
Versions: 1 2 3 4 5 6 7 8 9 10 11 12 13 14 15 16 17 18 19 20 21 22 23 24
976
FTUS41 KPBZ 110520
TAFAGC
TAF
KAGC 110520Z 1106/1206 26013KT 6SM -SHSN BKN021 OVC027
      TEMPO 1108/1110 4SM -SHSN OVC018
     FM111200 29010G20KT 6SM -SHSN OVC025
     FM111400 30012G20KT P6SM BKN030=

USA.gov is the U.S. government's official web portal to all federal, state and local government web resources and services.